createdAt,value
2022-10-04T00:01:45.311Z,2.13
2022-10-04T00:04:15.644Z,2.10
2022-10-04T00:06:59.809Z,2.03
2022-10-04T00:09:43.504Z,2.03
2022-10-04T00:12:21.532Z,2.50
2022-10-04T00:14:50.981Z,2.15
2022-10-04T00:17:24.449Z,2.03
2022-10-04T00:19:52.392Z,2.63
2022-10-04T00:22:25.056Z,2.40
2022-10-04T00:25:21.496Z,1.95
2022-10-04T00:28:19.658Z,2.10
2022-10-04T00:31:09.520Z,2.40
2022-10-04T00:33:36.843Z,2.17
2022-10-04T00:36:24.041Z,2.30
2022-10-04T00:39:08.670Z,2.30
2022-10-04T00:41:47.823Z,2.10
2022-10-04T00:44:43.533Z,2.50
2022-10-04T00:47:22.532Z,2.50
2022-10-04T00:49:56.966Z,3.10
2022-10-04T00:52:28.795Z,1.90
2022-10-04T00:55:00.609Z,2.25
2022-10-04T00:57:32.204Z,2.47
2022-10-04T01:00:18.062Z,2.40
2022-10-04T01:03:01.520Z,3.15
2022-10-04T01:05:42.582Z,2.58
2022-10-04T01:08:16.180Z,2.33
2022-10-04T01:10:51.927Z,2.72
2022-10-04T01:13:30.362Z,2.83
2022-10-04T01:16:03.383Z,2.00
2022-10-04T01:18:33.620Z,3.47
2022-10-04T01:21:18.990Z,3.03
2022-10-04T01:23:54.042Z,3.80
2022-10-04T01:26:29.285Z,3.30
2022-10-04T01:29:01.031Z,2.85
2022-10-04T01:31:29.665Z,2.95
2022-10-04T01:33:57.409Z,3.28
2022-10-04T01:36:24.530Z,1.90
2022-10-04T01:38:51.971Z,3.03
2022-10-04T01:41:25.667Z,2.38
2022-10-04T01:43:59.015Z,3.05
2022-10-04T01:46:36.616Z,2.60
2022-10-04T01:49:10.271Z,2.75
2022-10-04T01:51:45.694Z,2.10
2022-10-04T01:54:18.574Z,3.70
2022-10-04T01:56:52.045Z,2.55
2022-10-04T01:59:30.540Z,2.35
2022-10-04T02:02:17.337Z,2.13
2022-10-04T02:07:16.617Z,2.92
2022-10-04T02:09:46.660Z,2.63
2022-10-04T02:12:18.861Z,2.85
2022-10-04T02:14:55.818Z,2.40
2022-10-04T02:17:28.697Z,3.58
2022-10-04T02:19:56.941Z,3.85
2022-10-04T02:22:25.585Z,2.33
2022-10-04T02:24:56.726Z,2.60
2022-10-04T02:27:31.544Z,2.95
2022-10-04T02:30:04.406Z,2.30
2022-10-04T02:32:52.780Z,3.05
2022-10-04T02:35:20.512Z,2.10
2022-10-04T02:37:58.898Z,2.70
2022-10-04T02:40:35.359Z,2.85
2022-10-04T02:43:19.366Z,2.45
2022-10-04T02:46:03.050Z,2.80
2022-10-04T02:48:50.737Z,2.42
2022-10-04T02:51:27.079Z,3.30
2022-10-04T02:56:40.346Z,3.00
2022-10-04T02:59:08.072Z,3.20
2022-10-04T03:01:54.058Z,3.22
2022-10-04T03:04:41.399Z,2.75
2022-10-04T03:07:09.563Z,2.72
2022-10-04T03:09:40.419Z,3.28
2022-10-04T03:12:12.687Z,2.88
2022-10-04T03:14:40.439Z,2.83
2022-10-04T03:17:08.369Z,3.00
2022-10-04T03:19:37.409Z,2.40
2022-10-04T03:22:13.593Z,2.10
2022-10-04T03:24:50.499Z,2.67
2022-10-04T03:27:25.253Z,1.77
2022-10-04T03:29:58.195Z,3.22
2022-10-04T03:32:27.307Z,2.40
2022-10-04T03:34:59.992Z,2.55
2022-10-04T03:37:29.672Z,2.20
2022-10-04T03:39:58.015Z,2.50
2022-10-04T03:42:31.636Z,2.92
2022-10-04T03:45:02.628Z,2.50
2022-10-04T03:47:38.762Z,3.10
2022-10-04T03:50:12.402Z,2.60
2022-10-04T03:52:44.283Z,2.67
2022-10-04T03:55:14.618Z,3.35
2022-10-04T03:57:41.943Z,2.95
2022-10-04T04:00:09.646Z,2.97
2022-10-04T04:02:48.100Z,2.72
2022-10-04T04:05:37.628Z,3.08
2022-10-04T04:08:12.582Z,2.65
2022-10-04T04:10:44.197Z,2.95
2022-10-04T04:13:23.534Z,3.08
2022-10-04T04:15:51.560Z,2.83
2022-10-04T04:18:24.488Z,2.20
2022-10-04T04:20:53.970Z,2.30
2022-10-04T04:23:50.477Z,2.88
2022-10-04T04:26:39.460Z,2.70
2022-10-04T04:29:22.834Z,2.47
2022-10-04T04:31:58.392Z,2.50
2022-10-04T04:34:37.708Z,2.33
2022-10-04T04:37:05.597Z,3.35
2022-10-04T04:40:11.245Z,2.10
2022-10-04T04:42:38.995Z,1.77
2022-10-04T04:45:25.813Z,3.13
2022-10-04T04:47:57.452Z,2.45
2022-10-04T04:50:30.646Z,2.20
2022-10-04T04:53:13.187Z,3.10
2022-10-04T04:56:03.355Z,3.45
2022-10-04T04:58:38.314Z,2.33
2022-10-04T05:01:31.800Z,2.75
2022-10-04T05:04:14.396Z,2.75
2022-10-04T05:06:44.609Z,2.90
2022-10-04T05:09:44.462Z,2.65
2022-10-04T05:12:27.508Z,2.92
2022-10-04T05:14:57.680Z,2.88
2022-10-04T05:17:29.577Z,3.35
2022-10-04T05:20:00.043Z,2.50
2022-10-04T05:22:28.943Z,3.00
2022-10-04T05:25:14.770Z,2.85
2022-10-04T05:27:45.072Z,1.60
2022-10-04T05:30:22.970Z,2.78
2022-10-04T05:33:02.561Z,1.95
2022-10-04T05:35:46.360Z,2.60
2022-10-04T05:38:39.981Z,2.95
2022-10-04T05:41:35.192Z,2.90
2022-10-04T05:45:19.825Z,2.58
2022-10-04T06:04:51.816Z,1.98
2022-10-04T06:11:54.706Z,2.38
2022-10-04T06:14:48.259Z,1.83
2022-10-04T06:18:05.247Z,2.67
2022-10-04T06:20:57.000Z,2.38
2022-10-04T06:23:37.222Z,2.80
2022-10-04T06:26:33.780Z,2.75
2022-10-04T06:29:14.963Z,2.20
2022-10-04T06:33:06.014Z,2.80
2022-10-04T06:36:15.645Z,3.28
2022-10-04T06:39:17.320Z,2.60
2022-10-04T06:47:55.789Z,2.88
2022-10-04T06:50:44.378Z,2.90
2022-10-04T06:53:33.960Z,3.03
2022-10-04T06:56:26.768Z,1.90
2022-10-04T06:59:51.978Z,2.58
2022-10-04T07:02:58.052Z,1.75
2022-10-04T07:06:18.604Z,2.58
2022-10-04T07:08:58.673Z,2.45
2022-10-04T07:22:04.100Z,3.03
2022-10-04T07:25:14.741Z,3.30
2022-10-04T08:03:18.829Z,1.60
2022-10-04T08:10:18.621Z,2.17
2022-10-04T08:20:50.428Z,2.83
2022-10-04T08:24:21.246Z,2.25
2022-10-04T08:27:39.031Z,2.70
2022-10-04T08:35:20.024Z,2.35
2022-10-04T09:01:25.397Z,3.28
2022-10-04T09:08:41.053Z,2.17
2022-10-04T09:11:23.479Z,2.40
2022-10-04T09:13:59.909Z,2.47
2022-10-04T09:20:26.393Z,2.80
2022-10-04T09:25:03.936Z,2.28
2022-10-04T09:30:42.758Z,2.60
2022-10-04T09:33:44.618Z,2.33
2022-10-04T09:36:42.607Z,3.40
2022-10-04T09:39:45.398Z,2.92
2022-10-04T09:43:03.863Z,2.55
2022-10-04T09:46:26.412Z,2.35
2022-10-04T09:55:48.228Z,2.35
2022-10-04T09:58:52.431Z,2.78
2022-10-04T10:06:14.027Z,2.50
2022-10-04T10:23:55.547Z,2.05
2022-10-04T10:41:45.080Z,2.63
2022-10-04T10:44:30.741Z,2.55
2022-10-04T10:47:41.687Z,2.78
2022-10-04T10:51:27.716Z,1.90
2022-10-04T10:54:52.157Z,2.15
2022-10-04T10:57:25.043Z,2.60
2022-10-04T11:00:26.651Z,2.72
2022-10-04T11:03:25.463Z,2.28
2022-10-04T11:06:30.464Z,2.45
2022-10-04T11:09:45.129Z,2.50
2022-10-04T11:12:50.498Z,2.67
2022-10-04T11:16:47.260Z,2.00
2022-10-04T11:19:34.960Z,2.30
2022-10-04T11:22:17.565Z,2.00
2022-10-04T11:25:08.196Z,2.45
2022-10-04T11:27:59.926Z,2.10
2022-10-04T11:31:54.307Z,2.28
2022-10-04T11:41:50.644Z,2.20
2022-10-04T11:44:34.405Z,2.08
2022-10-04T11:48:22.478Z,1.80
2022-10-04T11:50:55.384Z,1.92
2022-10-04T11:53:52.898Z,1.63
2022-10-04T11:56:35.537Z,1.90
2022-10-04T12:00:01.392Z,1.73
2022-10-04T12:02:47.956Z,2.15
2022-10-04T12:05:54.718Z,2.03
2022-10-04T12:08:52.231Z,1.83
2022-10-04T12:11:56.490Z,2.22
2022-10-04T12:14:25.237Z,2.33
2022-10-04T12:17:01.733Z,2.00
2022-10-04T12:20:11.239Z,1.98
2022-10-04T12:23:29.165Z,1.40
2022-10-04T12:26:25.744Z,2.05
2022-10-04T12:29:10.701Z,2.40
2022-10-04T12:31:45.303Z,2.00
2022-10-04T12:34:15.139Z,2.10
2022-10-04T12:37:24.508Z,2.13
2022-10-04T12:39:56.572Z,1.80
2022-10-04T12:42:38.212Z,2.35
2022-10-04T12:45:20.365Z,1.60
2022-10-04T12:47:49.987Z,1.80
2022-10-04T12:50:41.566Z,2.22
2022-10-04T12:53:24.331Z,1.90
2022-10-04T12:56:26.795Z,1.98
2022-10-04T12:59:04.454Z,2.20
2022-10-04T13:02:01.044Z,1.60
2022-10-04T13:04:53.275Z,2.00
2022-10-04T13:07:40.250Z,2.55
2022-10-04T13:10:25.865Z,1.70
2022-10-04T13:13:23.909Z,2.20
2022-10-04T13:19:10.041Z,2.17
2022-10-04T13:21:45.967Z,1.60
2022-10-04T13:24:42.308Z,2.50
2022-10-04T13:27:19.708Z,2.42
2022-10-04T13:30:05.824Z,2.38
2022-10-04T13:32:59.235Z,1.65
2022-10-04T13:35:49.250Z,2.20
2022-10-04T13:38:57.281Z,2.47
2022-10-04T13:44:19.381Z,2.55
2022-10-04T13:46:50.821Z,2.75
2022-10-04T13:49:41.336Z,1.98
2022-10-04T13:52:50.806Z,2.33
2022-10-04T13:55:48.567Z,2.20
2022-10-04T13:58:18.887Z,1.70
2022-10-04T14:01:27.339Z,2.15
2022-10-04T14:04:16.102Z,1.80
2022-10-04T14:07:13.401Z,2.08
2022-10-04T14:12:26.560Z,2.05
2022-10-04T14:15:19.304Z,2.70
2022-10-04T14:18:14.560Z,2.17
2022-10-04T14:21:19.136Z,2.08
2022-10-04T14:26:44.189Z,1.80
2022-10-04T14:29:52.259Z,2.22
2022-10-04T14:35:05.800Z,2.80
2022-10-04T14:38:26.504Z,2.60
2022-10-04T14:41:31.924Z,2.50
2022-10-04T14:44:26.882Z,2.63
2022-10-04T14:46:57.100Z,2.40
2022-10-04T14:50:00.693Z,2.55
2022-10-04T14:52:52.445Z,2.92
2022-10-04T14:55:31.961Z,2.55
2022-10-04T14:58:15.230Z,2.63
2022-10-04T15:01:09.422Z,2.78
2022-10-04T15:03:56.105Z,2.53
2022-10-04T15:06:31.248Z,2.30
2022-10-04T15:09:19.144Z,2.72
2022-10-04T15:15:08.565Z,3.00
2022-10-04T15:17:51.619Z,2.85
2022-10-04T15:20:32.514Z,2.95
2022-10-04T15:23:09.008Z,3.05
2022-10-04T15:26:04.033Z,2.30
2022-10-04T15:28:45.029Z,3.05
2022-10-04T15:31:18.441Z,2.80
2022-10-04T15:33:57.763Z,3.40
2022-10-04T15:36:35.732Z,2.80
2022-10-04T15:39:17.995Z,3.08
2022-10-04T15:42:16.048Z,3.13
2022-10-04T15:45:01.831Z,2.40
2022-10-04T15:47:56.671Z,2.08
2022-10-04T15:50:34.796Z,3.22
2022-10-04T15:53:42.811Z,2.80
2022-10-04T15:56:36.800Z,3.25
2022-10-04T15:59:20.903Z,3.38
2022-10-04T16:01:55.669Z,3.05
2022-10-04T16:05:43.994Z,3.38
2022-10-04T16:08:22.622Z,2.58
2022-10-04T16:11:26.444Z,3.03
2022-10-04T16:14:01.309Z,3.88
2022-10-04T16:17:05.100Z,3.58
2022-10-04T16:23:34.165Z,3.50
2022-10-04T16:26:07.602Z,4.10
2022-10-04T16:28:55.484Z,3.97
2022-10-04T16:31:51.294Z,3.42
2022-10-04T16:34:45.986Z,4.40
2022-10-04T16:37:26.206Z,3.58
2022-10-04T16:40:06.659Z,4.05
2022-10-04T16:42:53.525Z,3.30
2022-10-04T16:45:38.750Z,4.28
2022-10-04T16:48:24.464Z,4.20
2022-10-04T16:51:34.799Z,5.78
2022-10-04T16:54:56.078Z,5.15
2022-10-04T16:57:37.846Z,5.63
2022-10-04T17:00:40.902Z,4.75
2022-10-04T17:06:17.131Z,5.35
2022-10-04T17:11:30.744Z,6.47
2022-10-04T17:14:24.591Z,4.75
2022-10-04T17:17:03.686Z,4.47
2022-10-04T17:20:05.831Z,4.93
2022-10-04T17:23:06.812Z,4.55
2022-10-04T17:25:57.329Z,4.30
2022-10-04T17:28:40.419Z,3.67
2022-10-04T17:31:42.517Z,4.30
2022-10-04T17:34:39.296Z,3.60
2022-10-04T17:37:41.632Z,3.95
2022-10-04T17:40:29.484Z,3.83
2022-10-04T17:43:21.962Z,4.03
2022-10-04T17:46:08.638Z,4.35
2022-10-04T17:49:07.032Z,4.30
2022-10-04T17:52:13.765Z,4.13
2022-10-04T17:55:12.125Z,4.70
2022-10-04T17:57:50.607Z,4.28
2022-10-04T18:00:27.678Z,4.22
2022-10-04T18:03:22.698Z,3.95
2022-10-04T18:06:03.464Z,4.40
2022-10-04T18:08:44.241Z,4.03
2022-10-04T18:11:27.534Z,4.35
2022-10-04T18:14:05.068Z,3.80
2022-10-04T18:16:56.769Z,4.20
2022-10-04T18:19:50.312Z,4.43
2022-10-04T18:22:20.385Z,4.85
2022-10-04T18:25:05.074Z,4.50
2022-10-04T18:27:33.755Z,4.35
2022-10-04T18:30:21.892Z,4.07
2022-10-04T18:32:58.599Z,4.55
2022-10-04T18:35:39.640Z,4.47
2022-10-04T18:38:10.164Z,4.38
2022-10-04T18:40:55.549Z,4.35
2022-10-04T18:43:35.825Z,4.97
2022-10-04T18:46:21.947Z,4.35
2022-10-04T18:48:57.515Z,4.68
2022-10-04T18:51:26.000Z,4.65
2022-10-04T18:54:16.867Z,4.15
2022-10-04T18:57:18.561Z,4.93
2022-10-04T19:00:20.944Z,4.72
2022-10-04T19:03:19.240Z,4.50
2022-10-04T19:06:06.276Z,4.38
2022-10-04T19:08:37.903Z,4.40
2022-10-04T19:11:29.145Z,4.60
2022-10-04T19:14:24.984Z,4.18
2022-10-04T19:16:56.016Z,5.00
2022-10-04T19:19:35.660Z,4.35
2022-10-04T19:22:14.927Z,4.57
2022-10-04T19:25:18.209Z,4.78
2022-10-04T19:27:57.930Z,4.82
2022-10-04T19:30:34.587Z,4.95
2022-10-04T19:33:16.431Z,4.75
2022-10-04T19:36:14.712Z,5.20
2022-10-04T19:39:12.461Z,5.78
2022-10-04T19:41:57.118Z,4.78
2022-10-04T19:44:53.119Z,5.03
2022-10-04T19:47:20.598Z,4.82
2022-10-04T19:50:06.624Z,5.25
2022-10-04T19:52:58.107Z,4.57
2022-10-04T19:55:48.011Z,5.10
2022-10-04T19:58:38.368Z,5.00
2022-10-04T20:01:13.574Z,4.43
2022-10-04T20:03:41.000Z,5.53
2022-10-04T20:06:09.249Z,5.00
2022-10-04T20:09:11.659Z,5.38
2022-10-04T20:11:38.859Z,4.63
2022-10-04T20:14:08.547Z,4.72
2022-10-04T20:16:48.652Z,4.25
2022-10-04T20:19:28.133Z,4.45
2022-10-04T20:22:13.864Z,4.13
2022-10-04T20:24:49.404Z,4.47
2022-10-04T20:27:26.182Z,4.03
2022-10-04T20:29:53.231Z,4.15
2022-10-04T20:32:31.207Z,3.92
2022-10-04T20:34:59.755Z,4.57
2022-10-04T20:38:02.937Z,4.20
2022-10-04T20:40:43.381Z,4.40
2022-10-04T20:43:16.324Z,4.30
2022-10-04T20:45:48.313Z,4.05
2022-10-04T20:48:22.968Z,4.20
2022-10-04T20:50:50.993Z,3.67
2022-10-04T20:53:24.627Z,4.72
2022-10-04T20:56:08.243Z,3.83
2022-10-04T20:58:37.444Z,3.83
2022-10-04T21:01:20.611Z,4.13
2022-10-04T21:03:47.897Z,3.80
2022-10-04T21:06:15.442Z,3.85
2022-10-04T21:08:43.163Z,4.05
2022-10-04T21:11:20.627Z,3.40
2022-10-04T21:14:33.178Z,3.95
2022-10-04T21:17:03.413Z,3.75
2022-10-04T21:19:34.122Z,4.18
2022-10-04T21:22:04.170Z,3.85
2022-10-04T21:24:41.532Z,3.17
2022-10-04T21:27:11.037Z,4.20
2022-10-04T21:29:39.130Z,3.60
2022-10-04T21:32:06.856Z,3.50
2022-10-04T21:34:52.393Z,3.35
2022-10-04T21:37:21.058Z,3.83
2022-10-04T21:39:48.133Z,4.13
2022-10-04T21:42:15.672Z,4.30
2022-10-04T21:44:42.848Z,4.97
2022-10-04T21:47:10.529Z,4.60
2022-10-04T21:49:37.874Z,4.55
2022-10-04T21:52:05.175Z,3.97
2022-10-04T21:54:32.387Z,4.35
2022-10-04T21:56:59.351Z,4.22
2022-10-04T21:59:26.302Z,4.13
2022-10-04T22:01:53.307Z,3.63
2022-10-04T22:04:20.937Z,4.10
2022-10-04T22:06:49.057Z,3.58
2022-10-04T22:09:16.461Z,4.22
2022-10-04T22:11:43.407Z,3.78
2022-10-04T22:14:10.331Z,3.90
2022-10-04T22:16:37.412Z,3.65
2022-10-04T22:19:05.199Z,3.85
2022-10-04T22:21:32.453Z,3.75
2022-10-04T22:24:01.341Z,3.60
2022-10-04T22:26:29.547Z,4.30
2022-10-04T22:28:57.063Z,3.60
2022-10-04T22:31:29.313Z,4.00
2022-10-04T22:33:56.805Z,3.80
2022-10-04T22:36:39.853Z,4.28
2022-10-04T22:39:10.221Z,3.15
2022-10-04T22:41:43.977Z,3.38
2022-10-04T22:44:14.795Z,3.55
2022-10-04T22:46:45.608Z,3.55
2022-10-04T22:49:15.941Z,3.75
2022-10-04T22:51:45.220Z,3.60
2022-10-04T22:54:27.251Z,3.85
2022-10-04T22:56:54.506Z,3.90
2022-10-04T22:59:23.158Z,3.28
2022-10-04T23:01:52.915Z,3.45
2022-10-04T23:04:25.689Z,3.60
2022-10-04T23:06:53.521Z,3.25
2022-10-04T23:09:21.127Z,3.28
2022-10-04T23:11:48.385Z,3.45
2022-10-04T23:14:15.285Z,3.78
2022-10-04T23:16:43.683Z,2.70
2022-10-04T23:19:14.825Z,3.13
2022-10-04T23:21:45.873Z,3.53
2022-10-04T23:24:18.850Z,3.28
2022-10-04T23:26:49.308Z,2.90
2022-10-04T23:29:19.820Z,3.72
2022-10-04T23:31:47.620Z,3.63
2022-10-04T23:34:24.189Z,3.20
2022-10-04T23:36:52.495Z,3.03
2022-10-04T23:39:32.407Z,3.42
2022-10-04T23:41:59.873Z,3.20
2022-10-04T23:44:37.963Z,2.83
2022-10-04T23:47:14.325Z,2.90
2022-10-04T23:52:35.940Z,3.08
2022-10-04T23:55:10.642Z,2.58
2022-10-04T23:57:37.782Z,2.92
